createdAt,value
2018-09-08T00:00:47.141Z,4.37
2018-09-08T00:03:14.976Z,3.70
2018-09-08T00:05:42.830Z,3.93
2018-09-08T00:08:10.657Z,3.37
2018-09-08T00:10:38.503Z,1.80
2018-09-08T00:13:06.317Z,2.47
2018-09-08T00:15:39.383Z,2.10
2018-09-08T00:18:12.303Z,2.90
2018-09-08T00:20:45.283Z,1.30
2018-09-08T00:23:18.224Z,1.23
2018-09-08T00:25:51.240Z,1.27
2018-09-08T00:28:57.503Z,3.57
2018-09-08T00:31:25.487Z,3.43
2018-09-08T00:33:54.035Z,1.07
2018-09-08T00:36:21.865Z,3.23
2018-09-08T00:38:49.684Z,2.63
2018-09-08T00:41:17.546Z,2.60
2018-09-08T00:43:45.406Z,2.03
2018-09-08T00:46:13.879Z,2.90
2018-09-08T00:48:42.300Z,1.80
2018-09-08T00:51:10.127Z,1.40
2018-09-08T00:53:37.961Z,1.40
2018-09-08T00:56:05.784Z,2.43
2018-09-08T00:58:34.111Z,1.83
2018-09-08T01:01:02.548Z,3.23
2018-09-08T01:03:31.231Z,3.83
2018-09-08T01:05:59.074Z,5.30
2018-09-08T01:08:27.463Z,2.77
2018-09-08T01:10:55.321Z,1.20
2018-09-08T01:13:23.768Z,2.63
2018-09-08T01:15:52.428Z,2.90
2018-09-08T01:18:21.030Z,3.07
2018-09-08T01:20:49.477Z,1.20
2018-09-08T01:23:17.934Z,3.97
2018-09-08T01:25:46.551Z,2.60
2018-09-08T01:28:15.008Z,2.63
2018-09-08T01:30:43.628Z,1.50
2018-09-08T01:33:12.071Z,2.17
2018-09-08T01:35:40.519Z,2.17
2018-09-08T01:38:08.338Z,5.03
2018-09-08T01:40:36.168Z,1.93
2018-09-08T01:43:04.040Z,3.33
2018-09-08T01:45:31.879Z,2.43
2018-09-08T01:48:00.352Z,1.97
2018-09-08T01:50:28.177Z,2.33
2018-09-08T01:52:55.995Z,3.23
2018-09-08T01:55:23.828Z,3.17
2018-09-08T01:57:51.651Z,1.73
2018-09-08T02:00:19.484Z,2.37
2018-09-08T02:02:47.311Z,1.40
2018-09-08T02:05:15.142Z,2.73
2018-09-08T02:07:43.556Z,2.27
2018-09-08T02:10:11.396Z,3.10
2018-09-08T02:12:39.228Z,1.50
2018-09-08T02:15:08.204Z,1.60
2018-09-08T02:17:36.020Z,4.63
2018-09-08T02:20:03.862Z,4.00
2018-09-08T02:22:31.715Z,2.83
2018-09-08T02:24:59.555Z,2.70
2018-09-08T02:27:27.404Z,1.70
2018-09-08T02:29:55.236Z,2.30
2018-09-08T02:32:23.066Z,2.43
2018-09-08T02:34:50.907Z,2.03
2018-09-08T02:37:18.719Z,1.47
2018-09-08T02:39:46.665Z,1.33
2018-09-08T02:42:14.494Z,1.53
2018-09-08T02:44:42.431Z,2.80
2018-09-08T02:47:10.267Z,1.47
2018-09-08T02:49:44.047Z,1.60
2018-09-08T02:52:11.103Z,3.23
2018-09-08T02:54:38.155Z,2.40
2018-09-08T02:57:05.224Z,2.60
2018-09-08T02:59:32.280Z,1.57
2018-09-08T03:01:59.361Z,2.03
2018-09-08T03:04:26.434Z,1.73
2018-09-08T03:06:53.525Z,2.60
2018-09-08T03:09:20.619Z,1.63
2018-09-08T03:11:47.727Z,1.33
2018-09-08T03:14:14.785Z,1.77
2018-09-08T03:16:41.859Z,1.23
2018-09-08T03:19:08.943Z,2.90
2018-09-08T03:21:35.999Z,2.20
2018-09-08T03:24:03.059Z,1.30
2018-09-08T03:26:30.131Z,1.37
2018-09-08T03:28:57.194Z,2.73
2018-09-08T03:31:24.257Z,1.47
2018-09-08T03:33:51.315Z,1.23
2018-09-08T03:36:18.366Z,1.70
2018-09-08T03:38:45.414Z,1.10
2018-09-08T03:41:12.462Z,2.07
2018-09-08T03:43:40.070Z,3.93
2018-09-08T03:46:07.164Z,1.07
2018-09-08T03:48:34.385Z,1.17
2018-09-08T03:51:01.466Z,2.43
2018-09-08T03:53:28.530Z,1.03
2018-09-08T03:55:55.587Z,2.97
2018-09-08T03:58:22.650Z,0.87
2018-09-08T04:00:49.731Z,2.57
2018-09-08T04:03:17.563Z,1.13
2018-09-08T04:05:45.459Z,1.67
2018-09-08T04:08:13.271Z,5.00
2018-09-08T04:10:41.111Z,3.43
2018-09-08T04:13:09.210Z,1.73
2018-09-08T04:15:37.201Z,2.87
2018-09-08T04:18:05.836Z,2.60
2018-09-08T04:20:33.762Z,1.70
2018-09-08T04:23:01.579Z,1.93
2018-09-08T04:25:29.408Z,1.17
2018-09-08T04:27:57.284Z,1.23
2018-09-08T04:30:25.125Z,3.87
2018-09-08T04:32:53.002Z,2.07
2018-09-08T04:35:20.836Z,1.10
2018-09-08T04:37:48.718Z,1.43
2018-09-08T04:40:16.539Z,1.17
2018-09-08T04:42:44.361Z,1.60
2018-09-08T04:45:12.183Z,1.60
2018-09-08T04:47:40.067Z,2.47
2018-09-08T04:50:07.966Z,3.97
2018-09-08T04:52:35.901Z,1.83
2018-09-08T04:55:03.777Z,1.43
2018-09-08T04:57:31.604Z,1.23
2018-09-08T04:59:59.448Z,1.00
2018-09-08T05:02:27.322Z,3.07
2018-09-08T05:04:55.298Z,4.87
2018-09-08T05:07:23.111Z,1.40
2018-09-08T05:09:50.960Z,1.13
2018-09-08T05:12:18.796Z,0.70
2018-09-08T05:14:46.623Z,1.13
2018-09-08T05:17:14.514Z,4.20
2018-09-08T05:19:42.801Z,2.23
2018-09-08T05:22:10.636Z,2.73
2018-09-08T05:24:38.467Z,2.70
2018-09-08T05:27:06.339Z,1.73
2018-09-08T05:29:34.168Z,1.70
2018-09-08T05:32:02.280Z,2.23
2018-09-08T05:34:30.556Z,0.80
2018-09-08T05:36:58.628Z,1.23
2018-09-08T05:39:26.481Z,2.00
2018-09-08T05:41:54.295Z,1.73
2018-09-08T05:44:22.139Z,3.60
2018-09-08T05:46:50.179Z,0.90
2018-09-08T05:49:18.089Z,3.07
2018-09-08T05:51:46.093Z,1.40
2018-09-08T05:54:14.036Z,1.37
2018-09-08T05:56:42.422Z,3.30
2018-09-08T05:59:10.245Z,1.40
2018-09-08T06:01:38.074Z,1.87
2018-09-08T06:04:05.961Z,3.83
2018-09-08T06:06:33.796Z,3.67
2018-09-08T06:09:01.650Z,2.57
2018-09-08T06:11:29.487Z,2.50
2018-09-08T06:13:57.312Z,2.27
2018-09-08T06:16:25.139Z,4.33
2018-09-08T06:18:52.984Z,5.17
2018-09-08T06:21:20.853Z,3.03
2018-09-08T06:23:48.808Z,5.40
2018-09-08T06:26:17.385Z,3.63
2018-09-08T06:28:45.322Z,7.17
2018-09-08T06:31:13.191Z,6.40
2018-09-08T06:33:41.051Z,6.13
2018-09-08T06:36:09.215Z,2.43
2018-09-08T06:38:37.088Z,2.60
2018-09-08T06:41:04.932Z,4.70
2018-09-08T06:43:32.753Z,5.77
2018-09-08T06:46:00.588Z,3.00
2018-09-08T06:48:28.440Z,9.13
2018-09-08T06:50:56.284Z,5.60
2018-09-08T06:53:24.118Z,4.23
2018-09-08T06:55:51.991Z,5.30
2018-09-08T06:58:19.815Z,3.93
2018-09-08T07:00:47.639Z,3.23
2018-09-08T07:03:15.469Z,3.83
2018-09-08T07:05:43.298Z,4.83
2018-09-08T07:08:11.886Z,5.83
2018-09-08T07:10:39.732Z,4.27
2018-09-08T07:13:07.576Z,4.07
2018-09-08T07:15:35.403Z,4.20
2018-09-08T07:18:03.235Z,4.90
2018-09-08T07:20:31.064Z,3.20
2018-09-08T07:22:58.944Z,3.73
2018-09-08T07:25:26.776Z,4.40
2018-09-08T07:27:54.742Z,5.03
2018-09-08T07:30:22.584Z,3.50
2018-09-08T07:32:50.454Z,3.67
2018-09-08T07:35:18.304Z,4.43
2018-09-08T07:37:46.151Z,4.37
2018-09-08T07:40:13.973Z,4.00
2018-09-08T07:42:41.816Z,4.47
2018-09-08T07:45:09.654Z,3.40
2018-09-08T07:47:37.518Z,4.30
2018-09-08T07:50:05.447Z,2.60
2018-09-08T07:52:33.331Z,2.97
2018-09-08T07:55:01.209Z,1.70
2018-09-08T07:57:29.061Z,3.93
2018-09-08T07:59:57.459Z,4.70
2018-09-08T08:02:25.350Z,3.67
2018-09-08T08:04:53.217Z,6.67
2018-09-08T08:07:21.355Z,4.43
2018-09-08T08:09:49.210Z,2.00
2018-09-08T08:12:17.659Z,2.93
2018-09-08T08:14:46.107Z,3.40
2018-09-08T08:17:13.939Z,1.27
2018-09-08T08:19:43.577Z,4.00
2018-09-08T08:22:12.208Z,2.60
2018-09-08T08:24:40.814Z,1.37
2018-09-08T08:27:09.304Z,3.40
2018-09-08T08:29:37.699Z,2.40
2018-09-08T08:32:06.019Z,3.80
2018-09-08T08:34:34.434Z,1.03
2018-09-08T08:37:02.903Z,2.73
2018-09-08T08:39:31.487Z,1.33
2018-09-08T08:41:59.943Z,3.80
2018-09-08T08:44:31.986Z,0.80
2018-09-08T08:46:59.976Z,2.07
2018-09-08T08:49:28.654Z,2.70
2018-09-08T08:52:02.314Z,1.30
2018-09-08T08:54:31.436Z,2.77
2018-09-08T08:57:00.151Z,2.73
2018-09-08T08:59:28.687Z,1.47
2018-09-08T09:01:57.042Z,2.73
2018-09-08T09:04:25.529Z,3.93
2018-09-08T09:06:54.311Z,1.10
2018-09-08T09:09:22.591Z,2.63
2018-09-08T09:11:51.472Z,1.50
2018-09-08T09:14:19.694Z,1.40
2018-09-08T09:16:48.115Z,2.33
2018-09-08T09:19:31.722Z,3.90
2018-09-08T09:22:05.423Z,3.40
2018-09-08T09:24:39.373Z,1.40
2018-09-08T09:27:07.605Z,2.40
2018-09-08T09:29:36.090Z,3.27
2018-09-08T09:32:04.727Z,2.00
2018-09-08T09:34:33.553Z,3.57
2018-09-08T09:37:02.228Z,1.30
2018-09-08T09:39:30.600Z,1.20
2018-09-08T09:41:59.059Z,1.83
2018-09-08T09:44:27.860Z,3.03
2018-09-08T09:46:56.364Z,2.07
2018-09-08T09:49:25.054Z,2.60
2018-09-08T09:51:53.374Z,1.50
2018-09-08T09:54:21.614Z,2.90
2018-09-08T09:56:50.058Z,2.00
2018-09-08T09:59:18.939Z,3.70
2018-09-08T10:01:52.888Z,1.60
2018-09-08T10:04:21.883Z,1.90
2018-09-08T10:06:50.506Z,3.33
2018-09-08T10:09:19.092Z,1.57
2018-09-08T10:11:47.419Z,2.23
2018-09-08T10:14:16.256Z,1.37
2018-09-08T10:16:44.115Z,2.63
2018-09-08T10:19:12.066Z,2.33
2018-09-08T10:21:39.929Z,1.87
2018-09-08T10:24:07.840Z,2.20
2018-09-08T10:26:35.732Z,1.50
2018-09-08T10:29:03.672Z,2.80
2018-09-08T10:31:31.659Z,1.50
2018-09-08T10:33:59.527Z,3.20
2018-09-08T10:36:27.421Z,3.47
2018-09-08T10:38:56.289Z,3.63
2018-09-08T10:41:25.021Z,1.87
2018-09-08T10:43:53.593Z,8.63
2018-09-08T10:46:22.077Z,2.77
2018-09-08T10:48:50.696Z,5.57
2018-09-08T10:53:29.056Z,5.47
2018-09-08T10:55:57.726Z,3.93
2018-09-08T10:58:26.319Z,2.60
2018-09-08T11:00:54.157Z,2.57
2018-09-08T11:03:22.628Z,2.90
2018-09-08T11:05:51.091Z,2.50
2018-09-08T11:08:18.907Z,4.13
2018-09-08T11:10:46.771Z,1.50
2018-09-08T11:13:14.603Z,1.73
2018-09-08T11:15:42.446Z,2.70
2018-09-08T11:18:10.285Z,1.73
2018-09-08T11:20:38.092Z,4.27
2018-09-08T11:23:06.236Z,1.73
2018-09-08T11:25:34.219Z,5.73
2018-09-08T11:28:02.287Z,3.13
2018-09-08T11:30:30.228Z,3.97
2018-09-08T11:32:58.343Z,2.33
2018-09-08T11:35:26.863Z,3.47
2018-09-08T11:37:55.697Z,3.57
2018-09-08T11:40:24.762Z,2.13
2018-09-08T11:42:52.747Z,3.77
2018-09-08T11:45:20.616Z,4.40
2018-09-08T11:47:48.506Z,3.90
2018-09-08T11:50:16.656Z,2.60
2018-09-08T11:52:44.605Z,3.83
2018-09-08T11:55:12.557Z,2.17
2018-09-08T11:57:40.466Z,1.63
2018-09-08T12:00:08.412Z,1.63
2018-09-08T12:02:36.516Z,4.60
2018-09-08T12:05:04.513Z,1.90
2018-09-08T12:07:32.352Z,2.10
2018-09-08T12:10:00.281Z,3.50
2018-09-08T12:12:28.239Z,4.53
2018-09-08T12:14:56.302Z,3.57
2018-09-08T12:17:24.859Z,1.67
2018-09-08T12:19:53.148Z,4.77
2018-09-08T12:22:21.195Z,4.90
2018-09-08T12:24:49.314Z,2.43
2018-09-08T12:27:17.474Z,1.80
2018-09-08T12:29:45.394Z,2.63
2018-09-08T12:32:13.343Z,3.00
2018-09-08T12:34:41.306Z,1.83
2018-09-08T12:37:09.353Z,3.27
2018-09-08T12:39:37.246Z,2.00
2018-09-08T12:42:05.645Z,3.63
2018-09-08T12:44:34.126Z,3.40
2018-09-08T12:47:02.644Z,2.07
2018-09-08T12:49:31.019Z,2.37
2018-09-08T12:51:58.881Z,2.33
2018-09-08T12:54:27.068Z,4.60
2018-09-08T12:56:54.912Z,2.50
2018-09-08T12:59:22.788Z,2.53
2018-09-08T13:01:50.654Z,2.20
2018-09-08T13:04:19.244Z,2.37
2018-09-08T13:06:47.291Z,3.20
2018-09-08T13:09:15.252Z,3.97
2018-09-08T13:11:43.332Z,2.17
2018-09-08T13:14:11.239Z,2.60
2018-09-08T13:16:39.136Z,4.37
2018-09-08T13:19:07.066Z,2.27
2018-09-08T13:21:34.925Z,2.47
2018-09-08T13:24:03.815Z,2.90
2018-09-08T13:26:32.627Z,2.73
2018-09-08T13:29:01.526Z,3.27
2018-09-08T13:31:30.194Z,5.00
2018-09-08T13:33:58.724Z,2.70
2018-09-08T13:36:27.244Z,2.07
2018-09-08T13:38:55.688Z,1.80
2018-09-08T13:41:24.358Z,3.50
2018-09-08T13:43:52.756Z,2.43
2018-09-08T13:46:21.505Z,3.87
2018-09-08T13:48:50.234Z,2.63
2018-09-08T13:51:18.703Z,2.40
2018-09-08T13:53:47.076Z,5.20
2018-09-08T13:56:15.864Z,3.87
2018-09-08T13:58:44.203Z,4.13
2018-09-08T14:01:12.619Z,2.20
2018-09-08T14:03:41.319Z,4.00
2018-09-08T14:06:09.863Z,3.20
2018-09-08T14:08:38.893Z,2.57
2018-09-08T14:11:07.526Z,3.30
2018-09-08T14:13:36.148Z,2.30
2018-09-08T14:16:05.326Z,4.63
2018-09-08T14:18:33.869Z,1.73
2018-09-08T14:21:02.982Z,3.10
2018-09-08T14:23:31.339Z,1.50
2018-09-08T14:25:59.535Z,2.03
2018-09-08T14:28:28.199Z,1.80
2018-09-08T14:30:56.685Z,1.60
2018-09-08T14:33:25.251Z,2.60
2018-09-08T14:35:53.200Z,2.23
2018-09-08T14:38:21.037Z,3.37
2018-09-08T14:40:49.136Z,2.10
2018-09-08T14:43:16.991Z,2.87
2018-09-08T14:45:45.000Z,2.57
2018-09-08T14:48:13.062Z,1.83
2018-09-08T14:50:40.934Z,1.77
2018-09-08T14:53:08.961Z,3.30
2018-09-08T14:55:36.848Z,2.70
2018-09-08T14:58:04.695Z,3.17
2018-09-08T15:00:32.530Z,2.67
2018-09-08T15:03:00.394Z,1.70
2018-09-08T15:05:28.322Z,1.83
2018-09-08T15:07:56.172Z,2.67
2018-09-08T15:10:24.102Z,3.20
2018-09-08T15:12:51.952Z,2.40
2018-09-08T15:15:20.283Z,2.83
2018-09-08T15:17:48.217Z,2.60
2018-09-08T15:20:16.032Z,1.87
2018-09-08T15:22:43.847Z,3.23
2018-09-08T15:25:11.688Z,1.70
2018-09-08T15:27:39.550Z,2.70
2018-09-08T15:30:07.387Z,1.97
2018-09-08T15:32:35.215Z,1.60
2018-09-08T15:35:03.039Z,2.90
2018-09-08T15:37:30.876Z,4.57
2018-09-08T15:39:58.721Z,3.30
2018-09-08T15:42:26.571Z,1.50
2018-09-08T15:44:54.386Z,2.10
2018-09-08T15:47:22.360Z,2.33
2018-09-08T15:49:50.323Z,2.57
2018-09-08T15:52:18.214Z,1.70
2018-09-08T15:54:46.179Z,2.00
2018-09-08T15:57:14.247Z,2.90
2018-09-08T15:59:42.574Z,3.13
2018-09-08T16:02:10.503Z,1.60
2018-09-08T16:04:38.357Z,2.57
2018-09-08T16:07:06.273Z,3.83
2018-09-08T16:09:34.140Z,4.97
2018-09-08T16:12:01.987Z,1.70
2018-09-08T16:14:29.929Z,2.53
2018-09-08T16:16:57.699Z,1.50
2018-09-08T16:19:25.539Z,2.73
2018-09-08T16:21:53.422Z,2.37
2018-09-08T16:24:21.322Z,4.17
2018-09-08T16:26:49.119Z,2.50
2018-09-08T16:29:16.964Z,6.87
2018-09-08T16:31:44.839Z,3.73
2018-09-08T16:34:12.651Z,5.27
2018-09-08T16:36:40.502Z,3.80
2018-09-08T16:39:09.411Z,1.73
2018-09-08T16:41:37.327Z,2.67
2018-09-08T16:44:05.226Z,5.97
2018-09-08T16:46:33.090Z,2.80
2018-09-08T16:49:00.927Z,2.10
2018-09-08T16:51:28.852Z,2.50
2018-09-08T16:53:56.692Z,2.30
2018-09-08T16:56:24.535Z,2.20
2018-09-08T16:58:52.360Z,2.77
2018-09-08T17:01:20.207Z,3.57
2018-09-08T17:03:48.128Z,1.30
2018-09-08T17:06:15.955Z,1.50
2018-09-08T17:08:43.779Z,1.50
2018-09-08T17:11:11.641Z,5.40
2018-09-08T17:13:39.466Z,1.60
2018-09-08T17:16:07.310Z,1.83
2018-09-08T17:18:35.139Z,1.30
2018-09-08T17:21:02.978Z,1.97
2018-09-08T17:23:30.808Z,1.47
2018-09-08T17:25:58.655Z,1.60
2018-09-08T17:28:26.675Z,1.60
2018-09-08T17:30:54.555Z,1.60
2018-09-08T17:33:22.464Z,1.47
2018-09-08T17:35:50.578Z,1.50
2018-09-08T17:38:18.760Z,1.90
2018-09-08T17:40:46.623Z,1.40
2018-09-08T17:43:14.591Z,2.20
2018-09-08T17:45:42.440Z,2.70
2018-09-08T17:48:10.291Z,2.43
2018-09-08T17:50:38.499Z,1.77
2018-09-08T17:53:08.747Z,1.70
2018-09-08T17:55:36.583Z,1.90
2018-09-08T17:58:04.432Z,2.27
2018-09-08T18:00:32.291Z,1.77
2018-09-08T18:03:00.112Z,4.57
2018-09-08T18:05:28.105Z,5.50
2018-09-08T18:07:56.447Z,4.27
2018-09-08T18:10:24.303Z,5.43
2018-09-08T18:12:52.136Z,3.10
2018-09-08T18:15:19.962Z,3.57
2018-09-08T18:17:47.841Z,5.57
2018-09-08T18:20:15.686Z,4.93
2018-09-08T18:22:43.521Z,4.67
2018-09-08T18:25:11.574Z,2.47
2018-09-08T18:27:39.427Z,6.53
2018-09-08T18:30:07.406Z,7.00
2018-09-08T18:32:35.303Z,5.67
2018-09-08T18:35:03.315Z,8.13
2018-09-08T18:37:31.325Z,6.40
2018-09-08T18:39:59.311Z,4.20
2018-09-08T18:42:27.199Z,4.17
2018-09-08T18:44:55.043Z,3.23
2018-09-08T18:47:23.099Z,5.27
2018-09-08T18:49:51.032Z,3.47
2018-09-08T18:52:18.875Z,3.93
2018-09-08T18:54:46.700Z,5.03
2018-09-08T18:57:14.620Z,4.77
2018-09-08T18:59:42.860Z,4.67
2018-09-08T19:02:11.580Z,5.77
2018-09-08T19:04:39.392Z,7.07
2018-09-08T19:07:07.243Z,7.30
2018-09-08T19:09:35.851Z,7.30
2018-09-08T19:12:03.808Z,7.77
2018-09-08T19:14:36.758Z,5.43
2018-09-08T19:17:04.672Z,6.73
2018-09-08T19:19:32.655Z,6.63
2018-09-08T19:22:00.634Z,8.13
2018-09-08T19:24:33.555Z,9.23
2018-09-08T19:27:01.510Z,8.00
2018-09-08T19:29:34.476Z,11.23
2018-09-08T19:32:02.395Z,7.43
2018-09-08T19:34:30.374Z,13.70
2018-09-08T19:36:58.272Z,12.03
2018-09-08T19:39:26.121Z,10.70
2018-09-08T19:41:53.948Z,13.53
2018-09-08T19:44:21.956Z,10.20
2018-09-08T19:46:54.890Z,11.80
2018-09-08T19:49:22.742Z,10.17
2018-09-08T19:51:50.847Z,13.87
2018-09-08T19:54:18.683Z,15.03
2018-09-08T19:56:51.711Z,13.00
2018-09-08T19:59:19.580Z,10.70
2018-09-08T20:01:47.424Z,13.13
2018-09-08T20:04:15.413Z,10.60
2018-09-08T20:06:43.242Z,8.03
2018-09-08T20:09:11.090Z,11.87
2018-09-08T20:11:38.914Z,7.13
2018-09-08T20:14:06.767Z,8.93
2018-09-08T20:16:35.346Z,8.47
2018-09-08T20:19:03.321Z,5.87
2018-09-08T20:21:31.756Z,8.53
2018-09-08T20:23:59.595Z,8.00
2018-09-08T20:26:27.748Z,7.77
2018-09-08T20:28:55.943Z,9.20
2018-09-08T20:31:23.759Z,8.57
2018-09-08T20:33:51.606Z,8.20
2018-09-08T20:36:19.479Z,10.47
2018-09-08T20:38:47.352Z,10.03
2018-09-08T20:41:15.287Z,7.23
2018-09-08T20:43:43.228Z,11.47
2018-09-08T20:46:11.450Z,8.73
2018-09-08T20:48:39.355Z,7.90
2018-09-08T20:51:07.243Z,11.03
2018-09-08T20:53:35.286Z,8.20
2018-09-08T20:56:03.216Z,8.60
2018-09-08T20:58:31.265Z,10.27
2018-09-08T21:00:59.222Z,7.10
2018-09-08T21:03:27.260Z,6.50
2018-09-08T21:05:55.228Z,8.00
2018-09-08T21:08:23.056Z,9.17
2018-09-08T21:10:51.031Z,7.10
2018-09-08T21:13:18.958Z,9.10
2018-09-08T21:15:46.837Z,8.40
2018-09-08T21:18:14.791Z,5.80
2018-09-08T21:20:42.713Z,7.10
2018-09-08T21:23:10.732Z,6.60
2018-09-08T21:25:38.615Z,7.13
2018-09-08T21:28:06.540Z,8.40
2018-09-08T21:30:34.396Z,7.60
2018-09-08T21:33:02.233Z,6.60
2018-09-08T21:35:30.192Z,9.03
2018-09-08T21:37:58.070Z,15.17
2018-09-08T21:40:26.102Z,5.40
2018-09-08T21:42:53.942Z,5.07
2018-09-08T21:45:21.822Z,3.97
2018-09-08T21:47:49.759Z,5.53
2018-09-08T21:50:17.629Z,5.33
2018-09-08T21:52:46.010Z,4.73
2018-09-08T21:55:13.883Z,5.13
2018-09-08T21:57:41.699Z,7.63
2018-09-08T22:00:09.557Z,5.40
2018-09-08T22:02:37.561Z,6.30
2018-09-08T22:05:05.400Z,3.77
2018-09-08T22:07:33.214Z,8.30
2018-09-08T22:10:01.043Z,7.00
2018-09-08T22:12:28.895Z,4.77
2018-09-08T22:14:56.769Z,5.17
2018-09-08T22:17:24.593Z,5.27
2018-09-08T22:19:52.435Z,6.17
2018-09-08T22:22:20.302Z,6.17
2018-09-08T22:24:48.202Z,7.10
2018-09-08T22:27:16.037Z,6.07
2018-09-08T22:29:43.859Z,5.97
2018-09-08T22:32:11.738Z,5.40
2018-09-08T22:34:39.583Z,4.90
2018-09-08T22:37:07.721Z,6.43
2018-09-08T22:39:35.902Z,4.40
2018-09-08T22:42:03.996Z,6.50
2018-09-08T22:44:31.893Z,5.50
2018-09-08T22:46:59.919Z,6.40
2018-09-08T22:49:27.847Z,5.77
2018-09-08T22:51:55.747Z,5.70
2018-09-08T22:54:23.602Z,4.37
2018-09-08T22:56:51.563Z,3.17
2018-09-08T22:59:19.371Z,3.23
2018-09-08T23:01:47.244Z,7.60
2018-09-08T23:04:15.097Z,4.13
2018-09-08T23:06:42.923Z,3.57
2018-09-08T23:09:10.744Z,3.00
2018-09-08T23:11:38.567Z,6.07
2018-09-08T23:14:06.876Z,5.33
2018-09-08T23:16:34.695Z,4.87
2018-09-08T23:19:02.543Z,5.33
2018-09-08T23:21:30.363Z,7.63
2018-09-08T23:23:58.459Z,4.80
2018-09-08T23:26:26.284Z,4.10
2018-09-08T23:28:54.399Z,2.60
2018-09-08T23:31:22.223Z,3.60
2018-09-08T23:33:50.043Z,8.30
2018-09-08T23:36:17.899Z,4.80
2018-09-08T23:38:45.731Z,5.20
2018-09-08T23:41:13.551Z,5.67
2018-09-08T23:43:41.379Z,4.83
2018-09-08T23:46:09.294Z,4.20
2018-09-08T23:48:37.151Z,3.53
2018-09-08T23:51:04.999Z,4.67
2018-09-08T23:53:32.822Z,4.03
2018-09-08T23:56:00.658Z,4.43
2018-09-08T23:58:28.473Z,4.47
